Time;durP1;ratioP1;P1;durP2;ratioP2;P2;SDS_P1;SDS_P2;PMS_P1;PMS_P2;Temp;Humidity;BMP_temperature;BMP_pressure;BME280_temperature;BME280_humidity;BME280_pressure;Samples;Min_cycle;Max_cycle;Signal;HPM_P1;HPM_P2
2024/01/12 00:20:36;;;;;;;14.8;3.9;;;;;;;;;;;;;-78
2024/01/12 00:50:30;;;;;;;11.8;3.9;;;;;;;;;;;;;-79
2024/01/12 01:20:31;;;;;;;11.9;4;;;;;;;;;;;;;-77
2024/01/12 01:50:32;;;;;;;10;4.1;;;;;;;;;;;;;-79
2024/01/12 02:20:29;;;;;;;9.3;4.2;;;;;;;;;;;;;-78
2024/01/12 02:50:31;;;;;;;12.4;4.8;;;;;;;;;;;;;-77
2024/01/12 03:20:37;;;;;;;12;4.5;;;;;;;;;;;;;-78
2024/01/12 03:50:29;;;;;;;17.2;4.7;;;;;;;;;;;;;-78
2024/01/12 04:20:29;;;;;;;23.3;5.2;;;;;;;;;;;;;-78
2024/01/12 04:50:29;;;;;;;19.6;5;;;;;;;;;;;;;-79
2024/01/12 05:20:29;;;;;;;20.8;5.2;;;;;;;;;;;;;-78
2024/01/12 05:50:29;;;;;;;24.2;6;;;;;;;;;;;;;-79
2024/01/12 06:20:31;;;;;;;18.6;4.5;;;;;;;;;;;;;-79
2024/01/12 06:50:29;;;;;;;17.5;4.4;;;;;;;;;;;;;-79
2024/01/12 07:20:29;;;;;;;17.1;3.7;;;;;;;;;;;;;-79
2024/01/12 07:50:35;;;;;;;19.2;2.9;;;;;;;;;;;;;-79
2024/01/12 08:20:29;;;;;;;17.7;2.9;;;;;;;;;;;;;-80
2024/01/12 08:50:33;;;;;;;25.1;3.5;;;;;;;;;;;;;-80
2024/01/12 09:20:29;;;;;;;13.5;2.1;;;;;;;;;;;;;-78
2024/01/12 09:50:32;;;;;;;11.2;1.6;;;;;;;;;;;;;-77
2024/01/12 10:20:31;;;;;;;11.9;1.6;;;;;;;;;;;;;-79
2024/01/12 10:50:33;;;;;;;10.3;1.7;;;;;;;;;;;;;-79
2024/01/12 11:20:30;;;;;;;11.3;1.5;;;;;;;;;;;;;-79
2024/01/12 11:50:30;;;;;;;7.7;1.4;;;;;;;;;;;;;-79
2024/01/12 12:20:37;;;;;;;9.4;1.3;;;;;;;;;;;;;-79
2024/01/12 12:50:34;;;;;;;12.1;2.1;;;;;;;;;;;;;-83
2024/01/12 13:20:38;;;;;;;4;1;;;;;;;;;;;;;-81
2024/01/12 13:50:45;;;;;;;3.7;0.9;;;;;;;;;;;;;-80
2024/01/12 14:20:43;;;;;;;9.1;1.6;;;;;;;;;;;;;-80
2024/01/12 17:20:49;;;;;;;;;;;;;;;;;;;;;
2024/01/12 19:20:39;;;;;;;13.6;6.5;;;;;;;;;;;;;-85
2024/01/12 19:50:32;;;;;;;12.1;5.1;;;;;;;;;;;;;-85
2024/01/12 20:20:32;;;;;;;12.5;6;;;;;;;;;;;;;-87
2024/01/12 20:50:30;;;;;;;21.7;10.4;;;;;;;;;;;;;-87
2024/01/12 21:20:35;;;;;;;42.4;12.9;;;;;;;;;;;;;-84
2024/01/12 21:50:41;;;;;;;36.9;13.2;;;;;;;;;;;;;-85
2024/01/12 22:20:31;;;;;;;33.3;14.2;;;;;;;;;;;;;-86
2024/01/12 22:50:32;;;;;;;33.6;12.7;;;;;;;;;;;;;-84
2024/01/12 23:20:35;;;;;;;28.3;11.6;;;;;;;;;;;;;-85
2024/01/12 23:50:29;;;;;;;29.9;12.6;;;;;;;;;;;;;-85
